sensor_id;sensor_type;location;lat;lon;timestamp;P1;durP1;ratioP1;P2;durP2;ratioP2
4198;SDS011;2113;50.946;14.610;2023-03-14T00:01:52;8.85;;;5.53;;
4198;SDS011;2113;50.946;14.610;2023-03-14T00:04:20;9.77;;;5.68;;
4198;SDS011;2113;50.946;14.610;2023-03-14T00:06:49;11.27;;;6.43;;
4198;SDS011;2113;50.946;14.610;2023-03-14T00:09:18;7.05;;;5.38;;
4198;SDS011;2113;50.946;14.610;2023-03-14T00:11:47;9.52;;;6.20;;
4198;SDS011;2113;50.946;14.610;2023-03-14T00:14:15;8.55;;;6.15;;
4198;SDS011;2113;50.946;14.610;2023-03-14T00:16:45;10.15;;;7.15;;
4198;SDS011;2113;50.946;14.610;2023-03-14T00:19:13;9.00;;;6.13;;
4198;SDS011;2113;50.946;14.610;2023-03-14T00:21:42;11.55;;;6.70;;
4198;SDS011;2113;50.946;14.610;2023-03-14T00:24:10;9.05;;;5.55;;
4198;SDS011;2113;50.946;14.610;2023-03-14T00:26:40;10.77;;;6.05;;
4198;SDS011;2113;50.946;14.610;2023-03-14T00:29:08;9.38;;;5.30;;
4198;SDS011;2113;50.946;14.610;2023-03-14T00:31:36;9.90;;;5.03;;
4198;SDS011;2113;50.946;14.610;2023-03-14T00:34:08;6.63;;;3.75;;
4198;SDS011;2113;50.946;14.610;2023-03-14T00:36:40;7.93;;;4.00;;
4198;SDS011;2113;50.946;14.610;2023-03-14T00:39:08;6.10;;;4.38;;
4198;SDS011;2113;50.946;14.610;2023-03-14T00:41:40;5.95;;;4.43;;
4198;SDS011;2113;50.946;14.610;2023-03-14T00:44:08;9.18;;;5.25;;
4198;SDS011;2113;50.946;14.610;2023-03-14T00:46:36;7.70;;;4.93;;
4198;SDS011;2113;50.946;14.610;2023-03-14T00:49:06;7.35;;;4.90;;
4198;SDS011;2113;50.946;14.610;2023-03-14T00:51:34;9.40;;;5.28;;
4198;SDS011;2113;50.946;14.610;2023-03-14T00:54:03;7.00;;;4.60;;
4198;SDS011;2113;50.946;14.610;2023-03-14T00:56:31;7.65;;;5.07;;
4198;SDS011;2113;50.946;14.610;2023-03-14T00:59:01;11.18;;;5.07;;
4198;SDS011;2113;50.946;14.610;2023-03-14T01:01:29;5.85;;;4.25;;
4198;SDS011;2113;50.946;14.610;2023-03-14T01:03:57;7.03;;;3.80;;
4198;SDS011;2113;50.946;14.610;2023-03-14T01:06:26;6.63;;;3.47;;
4198;SDS011;2113;50.946;14.610;2023-03-14T01:08:56;8.07;;;4.18;;
4198;SDS011;2113;50.946;14.610;2023-03-14T01:11:27;6.45;;;4.20;;
4198;SDS011;2113;50.946;14.610;2023-03-14T01:13:57;9.45;;;5.47;;
4198;SDS011;2113;50.946;14.610;2023-03-14T01:16:30;9.00;;;5.78;;
4198;SDS011;2113;50.946;14.610;2023-03-14T01:19:00;10.15;;;6.47;;
4198;SDS011;2113;50.946;14.610;2023-03-14T01:21:29;13.48;;;7.68;;
4198;SDS011;2113;50.946;14.610;2023-03-14T01:23:59;9.15;;;5.57;;
4198;SDS011;2113;50.946;14.610;2023-03-14T01:26:29;11.10;;;5.20;;
4198;SDS011;2113;50.946;14.610;2023-03-14T01:28:59;7.03;;;4.82;;
4198;SDS011;2113;50.946;14.610;2023-03-14T01:31:31;10.82;;;5.88;;
4198;SDS011;2113;50.946;14.610;2023-03-14T01:34:00;6.85;;;4.43;;
4198;SDS011;2113;50.946;14.610;2023-03-14T01:36:28;8.23;;;4.25;;
4198;SDS011;2113;50.946;14.610;2023-03-14T01:38:59;6.20;;;4.10;;
4198;SDS011;2113;50.946;14.610;2023-03-14T01:41:28;6.30;;;4.25;;
4198;SDS011;2113;50.946;14.610;2023-03-14T01:43:58;7.63;;;4.53;;
4198;SDS011;2113;50.946;14.610;2023-03-14T01:46:39;8.18;;;5.38;;
4198;SDS011;2113;50.946;14.610;2023-03-14T01:49:13;7.88;;;4.95;;
4198;SDS011;2113;50.946;14.610;2023-03-14T01:51:54;8.15;;;4.45;;
4198;SDS011;2113;50.946;14.610;2023-03-14T01:54:27;10.30;;;5.25;;
4198;SDS011;2113;50.946;14.610;2023-03-14T01:57:01;9.43;;;5.15;;
4198;SDS011;2113;50.946;14.610;2023-03-14T01:59:33;8.25;;;4.90;;
4198;SDS011;2113;50.946;14.610;2023-03-14T02:02:05;6.53;;;4.93;;
4198;SDS011;2113;50.946;14.610;2023-03-14T02:04:38;8.85;;;5.57;;
4198;SDS011;2113;50.946;14.610;2023-03-14T02:07:10;9.27;;;5.35;;
4198;SDS011;2113;50.946;14.610;2023-03-14T02:09:49;9.35;;;6.53;;
4198;SDS011;2113;50.946;14.610;2023-03-14T02:12:23;10.60;;;7.78;;
4198;SDS011;2113;50.946;14.610;2023-03-14T02:15:07;9.73;;;6.85;;
4198;SDS011;2113;50.946;14.610;2023-03-14T02:18:13;10.48;;;7.40;;
4198;SDS011;2113;50.946;14.610;2023-03-14T02:21:02;9.32;;;7.25;;
4198;SDS011;2113;50.946;14.610;2023-03-14T02:23:39;10.43;;;6.90;;
4198;SDS011;2113;50.946;14.610;2023-03-14T02:26:15;10.20;;;7.63;;
4198;SDS011;2113;50.946;14.610;2023-03-14T02:28:50;9.48;;;7.07;;
4198;SDS011;2113;50.946;14.610;2023-03-14T02:31:20;11.75;;;7.55;;
4198;SDS011;2113;50.946;14.610;2023-03-14T02:33:50;11.43;;;6.70;;
4198;SDS011;2113;50.946;14.610;2023-03-14T02:36:19;11.05;;;7.07;;
4198;SDS011;2113;50.946;14.610;2023-03-14T02:38:50;11.80;;;6.70;;
4198;SDS011;2113;50.946;14.610;2023-03-14T02:41:25;9.40;;;5.55;;
4198;SDS011;2113;50.946;14.610;2023-03-14T02:44:01;14.15;;;6.30;;
4198;SDS011;2113;50.946;14.610;2023-03-14T02:46:30;10.95;;;6.60;;
4198;SDS011;2113;50.946;14.610;2023-03-14T02:49:00;9.43;;;6.03;;
4198;SDS011;2113;50.946;14.610;2023-03-14T02:51:31;10.13;;;6.30;;
4198;SDS011;2113;50.946;14.610;2023-03-14T02:54:00;11.02;;;6.75;;
4198;SDS011;2113;50.946;14.610;2023-03-14T02:56:29;8.60;;;6.50;;
4198;SDS011;2113;50.946;14.610;2023-03-14T02:59:03;12.02;;;6.10;;
4198;SDS011;2113;50.946;14.610;2023-03-14T03:01:41;10.00;;;6.28;;
4198;SDS011;2113;50.946;14.610;2023-03-14T03:04:09;10.20;;;6.30;;
4198;SDS011;2113;50.946;14.610;2023-03-14T03:06:38;9.35;;;5.72;;
4198;SDS011;2113;50.946;14.610;2023-03-14T03:09:07;10.90;;;6.53;;
4198;SDS011;2113;50.946;14.610;2023-03-14T03:11:35;11.52;;;6.43;;
4198;SDS011;2113;50.946;14.610;2023-03-14T03:14:06;7.93;;;4.90;;
4198;SDS011;2113;50.946;14.610;2023-03-14T03:16:34;9.00;;;6.18;;
4198;SDS011;2113;50.946;14.610;2023-03-14T03:19:03;11.63;;;7.45;;
4198;SDS011;2113;50.946;14.610;2023-03-14T03:21:31;11.32;;;6.60;;
4198;SDS011;2113;50.946;14.610;2023-03-14T03:23:59;8.93;;;6.13;;
4198;SDS011;2113;50.946;14.610;2023-03-14T03:26:27;9.95;;;6.20;;
4198;SDS011;2113;50.946;14.610;2023-03-14T03:28:56;9.25;;;5.55;;
4198;SDS011;2113;50.946;14.610;2023-03-14T03:31:26;8.43;;;5.47;;
4198;SDS011;2113;50.946;14.610;2023-03-14T03:33:54;9.23;;;6.55;;
4198;SDS011;2113;50.946;14.610;2023-03-14T03:36:24;11.35;;;6.40;;
4198;SDS011;2113;50.946;14.610;2023-03-14T03:38:52;11.65;;;7.05;;
4198;SDS011;2113;50.946;14.610;2023-03-14T03:41:21;10.55;;;6.53;;
4198;SDS011;2113;50.946;14.610;2023-03-14T03:43:50;7.85;;;5.85;;
4198;SDS011;2113;50.946;14.610;2023-03-14T03:46:19;9.05;;;5.85;;
4198;SDS011;2113;50.946;14.610;2023-03-14T03:48:49;8.50;;;5.30;;
4198;SDS011;2113;50.946;14.610;2023-03-14T03:51:22;9.95;;;6.60;;
4198;SDS011;2113;50.946;14.610;2023-03-14T03:53:51;9.02;;;5.50;;
4198;SDS011;2113;50.946;14.610;2023-03-14T03:56:26;9.85;;;5.70;;
4198;SDS011;2113;50.946;14.610;2023-03-14T03:58:54;7.85;;;4.53;;
4198;SDS011;2113;50.946;14.610;2023-03-14T04:01:23;6.57;;;3.92;;
4198;SDS011;2113;50.946;14.610;2023-03-14T04:03:56;8.30;;;4.90;;
4198;SDS011;2113;50.946;14.610;2023-03-14T04:06:25;10.88;;;4.65;;
4198;SDS011;2113;50.946;14.610;2023-03-14T04:08:56;9.35;;;5.63;;
4198;SDS011;2113;50.946;14.610;2023-03-14T04:11:36;8.70;;;4.82;;
4198;SDS011;2113;50.946;14.610;2023-03-14T04:14:20;8.55;;;4.60;;
4198;SDS011;2113;50.946;14.610;2023-03-14T04:16:59;11.55;;;4.82;;
4198;SDS011;2113;50.946;14.610;2023-03-14T04:19:30;6.55;;;4.13;;
4198;SDS011;2113;50.946;14.610;2023-03-14T04:21:58;8.35;;;4.07;;
4198;SDS011;2113;50.946;14.610;2023-03-14T04:24:33;13.05;;;5.38;;
4198;SDS011;2113;50.946;14.610;2023-03-14T04:27:01;10.20;;;5.13;;
4198;SDS011;2113;50.946;14.610;2023-03-14T04:29:30;8.02;;;4.47;;
4198;SDS011;2113;50.946;14.610;2023-03-14T04:31:59;7.78;;;4.63;;
4198;SDS011;2113;50.946;14.610;2023-03-14T04:34:27;7.95;;;4.57;;
4198;SDS011;2113;50.946;14.610;2023-03-14T04:36:58;7.25;;;4.22;;
4198;SDS011;2113;50.946;14.610;2023-03-14T04:39:33;9.55;;;5.05;;
4198;SDS011;2113;50.946;14.610;2023-03-14T04:42:08;9.73;;;5.75;;
4198;SDS011;2113;50.946;14.610;2023-03-14T04:44:37;7.20;;;4.10;;
4198;SDS011;2113;50.946;14.610;2023-03-14T04:47:06;9.75;;;4.65;;
4198;SDS011;2113;50.946;14.610;2023-03-14T04:49:37;6.57;;;4.38;;
4198;SDS011;2113;50.946;14.610;2023-03-14T04:52:07;6.20;;;3.90;;
4198;SDS011;2113;50.946;14.610;2023-03-14T04:54:36;5.90;;;4.50;;
4198;SDS011;2113;50.946;14.610;2023-03-14T04:57:04;7.20;;;3.88;;
4198;SDS011;2113;50.946;14.610;2023-03-14T04:59:35;9.13;;;3.70;;
4198;SDS011;2113;50.946;14.610;2023-03-14T05:02:15;8.30;;;4.20;;
4198;SDS011;2113;50.946;14.610;2023-03-14T05:04:55;6.78;;;3.78;;
4198;SDS011;2113;50.946;14.610;2023-03-14T05:07:45;7.15;;;3.70;;
4198;SDS011;2113;50.946;14.610;2023-03-14T05:10:37;5.38;;;3.00;;
4198;SDS011;2113;50.946;14.610;2023-03-14T05:13:32;4.80;;;2.90;;
4198;SDS011;2113;50.946;14.610;2023-03-14T05:16:10;5.85;;;2.95;;
4198;SDS011;2113;50.946;14.610;2023-03-14T05:18:45;5.97;;;2.92;;
4198;SDS011;2113;50.946;14.610;2023-03-14T05:21:33;5.32;;;3.38;;
4198;SDS011;2113;50.946;14.610;2023-03-14T05:24:13;5.40;;;3.65;;
4198;SDS011;2113;50.946;14.610;2023-03-14T05:26:53;6.15;;;3.50;;
4198;SDS011;2113;50.946;14.610;2023-03-14T05:29:40;5.05;;;2.65;;
4198;SDS011;2113;50.946;14.610;2023-03-14T05:32:34;8.07;;;3.55;;
4198;SDS011;2113;50.946;14.610;2023-03-14T05:35:34;6.05;;;2.95;;
4198;SDS011;2113;50.946;14.610;2023-03-14T05:38:23;5.55;;;3.47;;
4198;SDS011;2113;50.946;14.610;2023-03-14T05:41:24;5.78;;;3.03;;
4198;SDS011;2113;50.946;14.610;2023-03-14T05:44:15;5.90;;;3.40;;
4198;SDS011;2113;50.946;14.610;2023-03-14T05:47:13;5.60;;;3.30;;
4198;SDS011;2113;50.946;14.610;2023-03-14T05:50:00;7.10;;;4.15;;
4198;SDS011;2113;50.946;14.610;2023-03-14T05:52:35;5.10;;;2.60;;
4198;SDS011;2113;50.946;14.610;2023-03-14T05:55:27;8.38;;;3.45;;
4198;SDS011;2113;50.946;14.610;2023-03-14T05:58:28;5.05;;;2.95;;
4198;SDS011;2113;50.946;14.610;2023-03-14T06:01:11;6.43;;;3.60;;
4198;SDS011;2113;50.946;14.610;2023-03-14T06:03:59;7.00;;;3.80;;
4198;SDS011;2113;50.946;14.610;2023-03-14T06:06:27;5.53;;;3.17;;
4198;SDS011;2113;50.946;14.610;2023-03-14T06:08:58;6.72;;;3.67;;
4198;SDS011;2113;50.946;14.610;2023-03-14T06:11:29;7.22;;;3.53;;
4198;SDS011;2113;50.946;14.610;2023-03-14T06:13:57;6.22;;;3.30;;
4198;SDS011;2113;50.946;14.610;2023-03-14T06:16:26;5.70;;;2.70;;
4198;SDS011;2113;50.946;14.610;2023-03-14T06:18:54;6.25;;;3.15;;
4198;SDS011;2113;50.946;14.610;2023-03-14T06:21:23;4.22;;;2.58;;
4198;SDS011;2113;50.946;14.610;2023-03-14T06:23:52;8.02;;;2.90;;
4198;SDS011;2113;50.946;14.610;2023-03-14T06:26:21;5.47;;;3.25;;
4198;SDS011;2113;50.946;14.610;2023-03-14T06:28:51;8.20;;;2.47;;
4198;SDS011;2113;50.946;14.610;2023-03-14T06:31:20;4.25;;;2.20;;
4198;SDS011;2113;50.946;14.610;2023-03-14T06:33:54;6.57;;;2.20;;
4198;SDS011;2113;50.946;14.610;2023-03-14T06:36:27;6.65;;;3.03;;
4198;SDS011;2113;50.946;14.610;2023-03-14T06:38:57;7.13;;;3.00;;
4198;SDS011;2113;50.946;14.610;2023-03-14T06:41:26;4.35;;;2.17;;
4198;SDS011;2113;50.946;14.610;2023-03-14T06:43:59;3.53;;;1.95;;
4198;SDS011;2113;50.946;14.610;2023-03-14T06:46:27;6.68;;;3.13;;
4198;SDS011;2113;50.946;14.610;2023-03-14T06:48:55;5.82;;;2.20;;
4198;SDS011;2113;50.946;14.610;2023-03-14T06:51:24;4.57;;;2.03;;
4198;SDS011;2113;50.946;14.610;2023-03-14T06:53:52;5.20;;;2.67;;
4198;SDS011;2113;50.946;14.610;2023-03-14T06:56:24;5.78;;;2.58;;
4198;SDS011;2113;50.946;14.610;2023-03-14T06:58:54;4.35;;;2.92;;
4198;SDS011;2113;50.946;14.610;2023-03-14T07:01:27;5.43;;;3.25;;
4198;SDS011;2113;50.946;14.610;2023-03-14T07:04:04;6.82;;;2.63;;
4198;SDS011;2113;50.946;14.610;2023-03-14T07:06:35;3.40;;;2.10;;
4198;SDS011;2113;50.946;14.610;2023-03-14T07:09:04;4.55;;;2.88;;
4198;SDS011;2113;50.946;14.610;2023-03-14T07:11:38;8.75;;;2.60;;
4198;SDS011;2113;50.946;14.610;2023-03-14T07:14:07;5.63;;;2.88;;
4198;SDS011;2113;50.946;14.610;2023-03-14T07:16:37;4.15;;;2.10;;
4198;SDS011;2113;50.946;14.610;2023-03-14T07:19:07;3.60;;;2.17;;
4198;SDS011;2113;50.946;14.610;2023-03-14T07:21:35;5.65;;;2.30;;
4198;SDS011;2113;50.946;14.610;2023-03-14T07:24:07;5.15;;;3.08;;
4198;SDS011;2113;50.946;14.610;2023-03-14T07:26:36;4.70;;;2.63;;
4198;SDS011;2113;50.946;14.610;2023-03-14T07:29:05;9.93;;;2.33;;
4198;SDS011;2113;50.946;14.610;2023-03-14T07:31:33;8.50;;;2.75;;
4198;SDS011;2113;50.946;14.610;2023-03-14T07:34:04;5.90;;;3.30;;
4198;SDS011;2113;50.946;14.610;2023-03-14T07:36:36;8.70;;;2.97;;
4198;SDS011;2113;50.946;14.610;2023-03-14T07:39:04;6.40;;;2.38;;
4198;SDS011;2113;50.946;14.610;2023-03-14T07:41:39;4.65;;;2.15;;
4198;SDS011;2113;50.946;14.610;2023-03-14T07:44:46;3.55;;;2.22;;
4198;SDS011;2113;50.946;14.610;2023-03-14T07:47:15;5.28;;;2.20;;
4198;SDS011;2113;50.946;14.610;2023-03-14T07:49:45;4.80;;;1.80;;
4198;SDS011;2113;50.946;14.610;2023-03-14T07:52:13;6.50;;;2.45;;
4198;SDS011;2113;50.946;14.610;2023-03-14T07:54:41;6.65;;;2.13;;
4198;SDS011;2113;50.946;14.610;2023-03-14T07:57:09;5.85;;;2.35;;
4198;SDS011;2113;50.946;14.610;2023-03-14T07:59:37;4.90;;;2.42;;
4198;SDS011;2113;50.946;14.610;2023-03-14T08:05:02;6.85;;;3.17;;
4198;SDS011;2113;50.946;14.610;2023-03-14T08:07:31;7.53;;;2.30;;
4198;SDS011;2113;50.946;14.610;2023-03-14T08:10:00;5.90;;;2.55;;
4198;SDS011;2113;50.946;14.610;2023-03-14T08:12:28;7.38;;;2.78;;
4198;SDS011;2113;50.946;14.610;2023-03-14T08:14:56;9.60;;;3.00;;
4198;SDS011;2113;50.946;14.610;2023-03-14T08:17:26;6.20;;;2.80;;
4198;SDS011;2113;50.946;14.610;2023-03-14T08:19:54;5.22;;;2.63;;
4198;SDS011;2113;50.946;14.610;2023-03-14T08:22:25;6.95;;;3.45;;
4198;SDS011;2113;50.946;14.610;2023-03-14T08:24:53;4.40;;;2.00;;
4198;SDS011;2113;50.946;14.610;2023-03-14T08:27:21;5.60;;;1.65;;
4198;SDS011;2113;50.946;14.610;2023-03-14T08:29:50;3.80;;;2.03;;
4198;SDS011;2113;50.946;14.610;2023-03-14T08:32:18;4.22;;;2.50;;
4198;SDS011;2113;50.946;14.610;2023-03-14T08:34:47;3.72;;;1.80;;
4198;SDS011;2113;50.946;14.610;2023-03-14T08:37:15;10.98;;;2.80;;
4198;SDS011;2113;50.946;14.610;2023-03-14T08:39:54;5.60;;;3.72;;
4198;SDS011;2113;50.946;14.610;2023-03-14T08:42:23;5.70;;;2.05;;
4198;SDS011;2113;50.946;14.610;2023-03-14T08:44:51;3.38;;;1.55;;
4198;SDS011;2113;50.946;14.610;2023-03-14T08:47:20;5.85;;;2.30;;
4198;SDS011;2113;50.946;14.610;2023-03-14T08:49:48;5.85;;;2.53;;
4198;SDS011;2113;50.946;14.610;2023-03-14T08:52:16;4.63;;;2.45;;
4198;SDS011;2113;50.946;14.610;2023-03-14T08:54:45;5.22;;;2.83;;
4198;SDS011;2113;50.946;14.610;2023-03-14T08:57:15;3.55;;;1.70;;
4198;SDS011;2113;50.946;14.610;2023-03-14T08:59:44;4.75;;;2.40;;
4198;SDS011;2113;50.946;14.610;2023-03-14T09:02:12;8.18;;;2.92;;
4198;SDS011;2113;50.946;14.610;2023-03-14T09:04:41;4.40;;;3.10;;
4198;SDS011;2113;50.946;14.610;2023-03-14T09:07:10;6.15;;;3.00;;
4198;SDS011;2113;50.946;14.610;2023-03-14T09:09:38;3.90;;;2.30;;
4198;SDS011;2113;50.946;14.610;2023-03-14T09:12:07;6.45;;;2.50;;
4198;SDS011;2113;50.946;14.610;2023-03-14T09:14:37;5.45;;;2.30;;
4198;SDS011;2113;50.946;14.610;2023-03-14T09:17:05;5.95;;;2.45;;
4198;SDS011;2113;50.946;14.610;2023-03-14T09:19:34;5.38;;;2.47;;
4198;SDS011;2113;50.946;14.610;2023-03-14T09:22:03;4.40;;;2.10;;
4198;SDS011;2113;50.946;14.610;2023-03-14T09:24:31;4.53;;;2.30;;
4198;SDS011;2113;50.946;14.610;2023-03-14T09:27:00;3.10;;;1.73;;
4198;SDS011;2113;50.946;14.610;2023-03-14T09:29:28;6.38;;;2.03;;
4198;SDS011;2113;50.946;14.610;2023-03-14T09:31:59;4.88;;;2.38;;
4198;SDS011;2113;50.946;14.610;2023-03-14T09:34:27;7.95;;;2.33;;
4198;SDS011;2113;50.946;14.610;2023-03-14T09:36:55;3.75;;;2.00;;
4198;SDS011;2113;50.946;14.610;2023-03-14T09:39:23;4.70;;;2.30;;
4198;SDS011;2113;50.946;14.610;2023-03-14T09:41:52;6.40;;;2.42;;
4198;SDS011;2113;50.946;14.610;2023-03-14T09:44:25;4.07;;;2.03;;
4198;SDS011;2113;50.946;14.610;2023-03-14T09:46:57;4.38;;;1.80;;
4198;SDS011;2113;50.946;14.610;2023-03-14T09:49:29;5.97;;;2.22;;
4198;SDS011;2113;50.946;14.610;2023-03-14T09:52:01;4.32;;;2.30;;
4198;SDS011;2113;50.946;14.610;2023-03-14T09:54:35;3.95;;;2.20;;
4198;SDS011;2113;50.946;14.610;2023-03-14T09:57:08;4.15;;;1.85;;
4198;SDS011;2113;50.946;14.610;2023-03-14T09:59:41;9.85;;;2.15;;
4198;SDS011;2113;50.946;14.610;2023-03-14T10:02:15;3.17;;;1.63;;
4198;SDS011;2113;50.946;14.610;2023-03-14T10:04:47;4.28;;;1.90;;
4198;SDS011;2113;50.946;14.610;2023-03-14T10:07:18;4.35;;;2.20;;
4198;SDS011;2113;50.946;14.610;2023-03-14T10:09:50;4.00;;;2.25;;
4198;SDS011;2113;50.946;14.610;2023-03-14T10:12:19;4.50;;;2.10;;
4198;SDS011;2113;50.946;14.610;2023-03-14T10:14:50;4.35;;;1.98;;
4198;SDS011;2113;50.946;14.610;2023-03-14T10:17:21;3.58;;;1.95;;
4198;SDS011;2113;50.946;14.610;2023-03-14T10:19:51;4.30;;;2.00;;
4198;SDS011;2113;50.946;14.610;2023-03-14T10:22:21;5.85;;;2.42;;
4198;SDS011;2113;50.946;14.610;2023-03-14T10:24:52;3.60;;;2.10;;
4198;SDS011;2113;50.946;14.610;2023-03-14T10:27:26;3.58;;;1.83;;
4198;SDS011;2113;50.946;14.610;2023-03-14T10:29:58;3.70;;;1.60;;
4198;SDS011;2113;50.946;14.610;2023-03-14T10:32:31;4.05;;;2.35;;
4198;SDS011;2113;50.946;14.610;2023-03-14T10:35:06;2.85;;;1.65;;
4198;SDS011;2113;50.946;14.610;2023-03-14T10:37:50;3.50;;;1.45;;
4198;SDS011;2113;50.946;14.610;2023-03-14T10:40:24;4.43;;;1.95;;
4198;SDS011;2113;50.946;14.610;2023-03-14T10:42:57;3.70;;;1.88;;
4198;SDS011;2113;50.946;14.610;2023-03-14T10:45:29;2.83;;;1.35;;
4198;SDS011;2113;50.946;14.610;2023-03-14T10:48:13;3.10;;;1.80;;
4198;SDS011;2113;50.946;14.610;2023-03-14T10:50:48;2.83;;;1.20;;
4198;SDS011;2113;50.946;14.610;2023-03-14T10:53:17;2.85;;;1.45;;
4198;SDS011;2113;50.946;14.610;2023-03-14T10:55:46;3.85;;;1.50;;
4198;SDS011;2113;50.946;14.610;2023-03-14T10:58:23;4.80;;;1.60;;
4198;SDS011;2113;50.946;14.610;2023-03-14T11:00:56;2.60;;;1.40;;
4198;SDS011;2113;50.946;14.610;2023-03-14T11:03:33;5.55;;;1.77;;
4198;SDS011;2113;50.946;14.610;2023-03-14T11:06:06;4.25;;;1.75;;
4198;SDS011;2113;50.946;14.610;2023-03-14T11:08:44;3.20;;;1.75;;
4198;SDS011;2113;50.946;14.610;2023-03-14T11:11:21;4.60;;;2.20;;
4198;SDS011;2113;50.946;14.610;2023-03-14T11:13:54;3.95;;;1.98;;
4198;SDS011;2113;50.946;14.610;2023-03-14T11:16:34;4.47;;;1.98;;
4198;SDS011;2113;50.946;14.610;2023-03-14T11:22:28;4.22;;;1.80;;
4198;SDS011;2113;50.946;14.610;2023-03-14T11:25:07;3.47;;;1.83;;
4198;SDS011;2113;50.946;14.610;2023-03-14T11:27:43;9.32;;;1.70;;
4198;SDS011;2113;50.946;14.610;2023-03-14T11:30:16;4.40;;;1.83;;
4198;SDS011;2113;50.946;14.610;2023-03-14T11:32:48;3.10;;;1.75;;
4198;SDS011;2113;50.946;14.610;2023-03-14T11:35:25;3.33;;;1.42;;
4198;SDS011;2113;50.946;14.610;2023-03-14T11:38:00;8.77;;;1.70;;
4198;SDS011;2113;50.946;14.610;2023-03-14T11:40:37;3.20;;;1.58;;
4198;SDS011;2113;50.946;14.610;2023-03-14T11:43:10;2.47;;;1.38;;
4198;SDS011;2113;50.946;14.610;2023-03-14T11:45:43;2.85;;;1.35;;
4198;SDS011;2113;50.946;14.610;2023-03-14T11:48:14;3.88;;;1.73;;
4198;SDS011;2113;50.946;14.610;2023-03-14T11:50:50;3.40;;;1.30;;
4198;SDS011;2113;50.946;14.610;2023-03-14T11:53:25;4.10;;;2.08;;
4198;SDS011;2113;50.946;14.610;2023-03-14T11:56:04;2.65;;;1.10;;
4198;SDS011;2113;50.946;14.610;2023-03-14T11:58:43;6.85;;;2.25;;
4198;SDS011;2113;50.946;14.610;2023-03-14T12:01:20;3.28;;;1.20;;
4198;SDS011;2113;50.946;14.610;2023-03-14T12:03:53;2.92;;;1.73;;
4198;SDS011;2113;50.946;14.610;2023-03-14T12:06:28;4.85;;;1.50;;
4198;SDS011;2113;50.946;14.610;2023-03-14T12:09:04;3.78;;;1.45;;
4198;SDS011;2113;50.946;14.610;2023-03-14T12:11:35;6.53;;;1.50;;
4198;SDS011;2113;50.946;14.610;2023-03-14T12:14:18;2.20;;;1.10;;
4198;SDS011;2113;50.946;14.610;2023-03-14T12:16:53;2.70;;;1.00;;
4198;SDS011;2113;50.946;14.610;2023-03-14T12:19:27;4.00;;;1.40;;
4198;SDS011;2113;50.946;14.610;2023-03-14T12:24:57;6.38;;;2.35;;
4198;SDS011;2113;50.946;14.610;2023-03-14T12:27:45;3.97;;;1.20;;
4198;SDS011;2113;50.946;14.610;2023-03-14T12:30:41;3.40;;;1.23;;
4198;SDS011;2113;50.946;14.610;2023-03-14T12:33:10;2.80;;;1.00;;
4198;SDS011;2113;50.946;14.610;2023-03-14T12:36:01;3.10;;;1.40;;
4198;SDS011;2113;50.946;14.610;2023-03-14T12:38:39;3.45;;;1.20;;
4198;SDS011;2113;50.946;14.610;2023-03-14T12:41:15;4.00;;;1.08;;
4198;SDS011;2113;50.946;14.610;2023-03-14T12:43:48;2.38;;;1.00;;
4198;SDS011;2113;50.946;14.610;2023-03-14T12:46:21;2.05;;;0.88;;
4198;SDS011;2113;50.946;14.610;2023-03-14T12:48:55;3.42;;;2.10;;
4198;SDS011;2113;50.946;14.610;2023-03-14T12:51:34;2.63;;;1.00;;
4198;SDS011;2113;50.946;14.610;2023-03-14T12:54:11;2.95;;;0.95;;
4198;SDS011;2113;50.946;14.610;2023-03-14T12:57:17;3.03;;;1.52;;
4198;SDS011;2113;50.946;14.610;2023-03-14T12:59:55;4.88;;;1.52;;
4198;SDS011;2113;50.946;14.610;2023-03-14T13:02:25;2.38;;;1.13;;
4198;SDS011;2113;50.946;14.610;2023-03-14T13:05:02;3.70;;;1.20;;
4198;SDS011;2113;50.946;14.610;2023-03-14T13:10:41;3.38;;;2.53;;
4198;SDS011;2113;50.946;14.610;2023-03-14T13:13:17;3.47;;;1.10;;
4198;SDS011;2113;50.946;14.610;2023-03-14T13:15:48;3.25;;;0.88;;
4198;SDS011;2113;50.946;14.610;2023-03-14T13:18:26;2.53;;;0.90;;
4198;SDS011;2113;50.946;14.610;2023-03-14T13:20:59;3.25;;;1.50;;
4198;SDS011;2113;50.946;14.610;2023-03-14T13:23:32;2.90;;;1.10;;
4198;SDS011;2113;50.946;14.610;2023-03-14T13:26:09;3.95;;;1.10;;
4198;SDS011;2113;50.946;14.610;2023-03-14T13:28:41;2.88;;;1.00;;
4198;SDS011;2113;50.946;14.610;2023-03-14T13:31:12;2.67;;;0.80;;
4198;SDS011;2113;50.946;14.610;2023-03-14T13:33:56;3.08;;;1.13;;
4198;SDS011;2113;50.946;14.610;2023-03-14T13:36:26;2.92;;;1.30;;
4198;SDS011;2113;50.946;14.610;2023-03-14T13:38:57;4.25;;;1.27;;
4198;SDS011;2113;50.946;14.610;2023-03-14T13:41:29;2.35;;;0.95;;
4198;SDS011;2113;50.946;14.610;2023-03-14T13:43:59;2.40;;;1.02;;
4198;SDS011;2113;50.946;14.610;2023-03-14T13:46:32;2.85;;;1.13;;
4198;SDS011;2113;50.946;14.610;2023-03-14T13:49:02;3.85;;;1.42;;
4198;SDS011;2113;50.946;14.610;2023-03-14T13:51:33;3.42;;;1.48;;
4198;SDS011;2113;50.946;14.610;2023-03-14T13:54:01;3.65;;;1.33;;
4198;SDS011;2113;50.946;14.610;2023-03-14T13:56:32;4.15;;;1.50;;
4198;SDS011;2113;50.946;14.610;2023-03-14T13:59:01;2.70;;;0.93;;
4198;SDS011;2113;50.946;14.610;2023-03-14T14:01:30;3.50;;;1.25;;
4198;SDS011;2113;50.946;14.610;2023-03-14T14:04:02;3.35;;;1.10;;
4198;SDS011;2113;50.946;14.610;2023-03-14T14:06:35;2.85;;;0.90;;
4198;SDS011;2113;50.946;14.610;2023-03-14T14:09:10;3.25;;;1.40;;
4198;SDS011;2113;50.946;14.610;2023-03-14T14:11:43;4.40;;;1.50;;
4198;SDS011;2113;50.946;14.610;2023-03-14T14:14:34;4.80;;;0.98;;
4198;SDS011;2113;50.946;14.610;2023-03-14T14:17:07;7.03;;;1.48;;
4198;SDS011;2113;50.946;14.610;2023-03-14T14:19:38;2.90;;;1.23;;
4198;SDS011;2113;50.946;14.610;2023-03-14T14:22:08;5.10;;;1.77;;
4198;SDS011;2113;50.946;14.610;2023-03-14T14:24:38;3.05;;;1.63;;
4198;SDS011;2113;50.946;14.610;2023-03-14T14:27:12;2.60;;;1.10;;
4198;SDS011;2113;50.946;14.610;2023-03-14T14:29:44;5.00;;;1.50;;
4198;SDS011;2113;50.946;14.610;2023-03-14T14:32:23;4.05;;;1.40;;
4198;SDS011;2113;50.946;14.610;2023-03-14T14:34:58;3.47;;;1.27;;
4198;SDS011;2113;50.946;14.610;2023-03-14T14:37:28;2.85;;;1.35;;
4198;SDS011;2113;50.946;14.610;2023-03-14T14:39:59;5.10;;;0.93;;
4198;SDS011;2113;50.946;14.610;2023-03-14T14:42:35;2.78;;;1.10;;
4198;SDS011;2113;50.946;14.610;2023-03-14T14:45:10;3.85;;;1.10;;
4198;SDS011;2113;50.946;14.610;2023-03-14T14:47:50;4.30;;;1.20;;
4198;SDS011;2113;50.946;14.610;2023-03-14T14:50:27;3.42;;;1.40;;
4198;SDS011;2113;50.946;14.610;2023-03-14T14:52:58;4.05;;;1.50;;
4198;SDS011;2113;50.946;14.610;2023-03-14T14:55:28;3.60;;;1.50;;
4198;SDS011;2113;50.946;14.610;2023-03-14T14:58:11;2.97;;;1.40;;
4198;SDS011;2113;50.946;14.610;2023-03-14T15:00:52;3.85;;;1.95;;
4198;SDS011;2113;50.946;14.610;2023-03-14T15:03:25;3.00;;;1.20;;
4198;SDS011;2113;50.946;14.610;2023-03-14T15:05:55;2.75;;;1.10;;
4198;SDS011;2113;50.946;14.610;2023-03-14T15:08:24;2.70;;;1.20;;
4198;SDS011;2113;50.946;14.610;2023-03-14T15:10:54;2.65;;;1.40;;
4198;SDS011;2113;50.946;14.610;2023-03-14T15:13:24;4.32;;;1.40;;
4198;SDS011;2113;50.946;14.610;2023-03-14T15:15:53;2.05;;;0.90;;
4198;SDS011;2113;50.946;14.610;2023-03-14T15:18:23;2.28;;;1.10;;
4198;SDS011;2113;50.946;14.610;2023-03-14T15:20:56;3.10;;;1.55;;
4198;SDS011;2113;50.946;14.610;2023-03-14T15:23:24;3.15;;;1.40;;
4198;SDS011;2113;50.946;14.610;2023-03-14T15:25:53;5.15;;;2.08;;
4198;SDS011;2113;50.946;14.610;2023-03-14T15:28:23;2.45;;;1.23;;
4198;SDS011;2113;50.946;14.610;2023-03-14T15:30:54;2.90;;;1.23;;
4198;SDS011;2113;50.946;14.610;2023-03-14T15:33:25;3.30;;;1.02;;
4198;SDS011;2113;50.946;14.610;2023-03-14T15:35:54;2.47;;;1.23;;
4198;SDS011;2113;50.946;14.610;2023-03-14T15:38:23;3.00;;;1.20;;
4198;SDS011;2113;50.946;14.610;2023-03-14T15:40:52;2.50;;;1.60;;
4198;SDS011;2113;50.946;14.610;2023-03-14T15:43:20;4.90;;;1.55;;
4198;SDS011;2113;50.946;14.610;2023-03-14T15:45:50;2.90;;;1.52;;
4198;SDS011;2113;50.946;14.610;2023-03-14T15:48:19;5.90;;;1.52;;